Flight Track Log - Related Links

Times and Time Zones

All times are in EDT time to prevent confusion due to time zone crossing. See the RPA3275 flight status page for this flight to view local times or setup timezone preferences in your user account.

Time Position Orientation Groundspeed Altitude Reporting Facility
EDT Latitude Longitude Course Direction KTS MPH feet Rate Location/Type
Sun 07:23:30 AM 42.7672 -73.8061 220° Southwest 150 173 1,800  Level Boston Center
Sun 07:24:37 AM 42.7875 -73.8631 296° West 208 239 4,300 2,743 Climbing Boston Center
Sun 07:25:50 AM 42.7778 -73.9761 263° West 268 308 8,200 3,068 Climbing Boston Center
Sun 07:26:00 AM 42.7306 -74.3055 236° Southwest  Level FlightAware Approximate
Sun 07:26:50 AM 42.7681 -74.0778 263° West 280 322 11,100  Level Boston Center
Sun 07:27:00 AM 42.6641 -74.3926 220° Southwest  Level FlightAware Approximate
Sun 07:27:50 AM 42.7581 -74.1819 263° West 280 322 14,100  Level Boston Center
Sun 07:28:00 AM 42.5924 -74.4732 220° Southwest  Level FlightAware Approximate
Sun 07:28:50 AM 42.7458 -74.2947 262° West 290 334 16,700  Level Boston Center
Sun 07:29:50 AM 42.6903 -74.3722 226° Southwest 286 329 19,000 1,150 Climbing Boston Center
Sun 07:30:50 AM 42.6222 -74.4519 221° Southwest 304 350 19,000  Level Boston Center
Sun 07:31:50 AM 42.5542 -74.5286 220° Southwest 318 366 19,000  Level Boston Center
Sun 07:33:54 AM 42.4167 -74.6861 220° Southwest 318 366 19,000  Level New York Center
Sun 07:34:54 AM 42.3494 -74.7633 220° Southwest 318 366 19,000  Level New York Center
Sun 07:35:55 AM 42.2825 -74.8406 220° Southwest 318 366 19,000  Level New York Center
Sun 07:36:54 AM 42.2153 -74.9178 220° Southwest 318 366 19,000  Level New York Center
Sun 07:37:55 AM 42.1503 -74.9861 218° Southwest 318 366 19,000  Level New York Center
Sun 07:38:53 AM 42.0667 -75.0536 211° Southwest 324 373 19,000  Level New York Center
Sun 07:39:54 AM 41.9917 -75.1128 210° Southwest 324 373 19,000  Level New York Center
Sun 07:40:54 AM 41.9167 -75.1747 212° Southwest 324 373 19,000  Level New York Center
Sun 07:41:55 AM 41.8478 -75.2314 212° Southwest 324 373 19,000  Level New York Center
Sun 07:42:53 AM 41.7728 -75.2903 210° Southwest 324 373 19,000 -1,017 Level New York Center
Sun 07:43:53 AM 41.6889 -75.3597 212° Southwest 324 373 17,000 -1,686 Descending New York Center
Sun 07:44:54 AM 41.6139 -75.4183 210° Southwest 324 373 15,600 -1,500 Descending New York Center
Sun 07:45:53 AM 41.5406 -75.4769 211° Southwest 324 373 14,000 -1,600 Descending New York Center
Sun 07:46:54 AM 41.4761 -75.5306 212° Southwest 324 373 12,400 -1,041 Descending New York Center
Sun 07:47:54 AM 41.4028 -75.5892 211° Southwest 319 367 11,900 -250 Descending New York Center
Sun 07:48:54 AM 41.3297 -75.6447 210° Southwest 314 361 11,900 -347 Level New York Center
Sun 07:49:55 AM 41.2550 -75.6889 204° Southwest 301 346 11,200 -504 Descending New York Center
Sun 07:50:53 AM 41.1822 -75.6892 180° South 260 299 10,900 -153 Descending New York Center
Sun 07:51:53 AM 41.1133 -75.6897 180° South 270 311 10,900  Level New York Center
Sun 07:52:53 AM 41.0386 -75.6869 178° South 275 316 10,900  Level New York Center
Sun 07:53:53 AM 40.9636 -75.6869 180° South 275 316 10,900 -500 Level New York Center
Sun 07:54:53 AM 40.8814 -75.6536 163° South 275 316 9,900 -496 Descending New York Center
Sun 07:55:54 AM 40.8081 -75.6156 159° South 282 325 9,900  Level New York Center
Sun 07:56:55 AM 40.7325 -75.5772 159° South 287 330 9,900  Level New York Center
Sun 07:57:53 AM 40.6672 -75.5425 158° South 287 330 9,900 50 Level New York Center
Sun 07:58:54 AM 40.5939 -75.5047 159° South 287 330 10,000  Climbing New York Center
Sun 07:59:55 AM 40.5222 -75.4669 158° South 287 330 9,900 -50 Descending New York Center
Sun 08:00:53 AM 40.4486 -75.4319 160° South 287 330 9,900 -356 Level New York Center
Sun 08:01:53 AM 40.3775 -75.3889 155° Southeast 287 330 9,200 -893 Descending New York Center
Sun 08:02:54 AM 40.2981 -75.3428 156° South 287 330 8,100 -1,033 Descending New York Center
Sun 08:03:55 AM 40.2267 -75.3000 155° Southeast 287 330 7,100 -958 Descending New York Center
Sun 08:04:53 AM 40.1511 -75.2625 159° South 294 338 6,200 -508 Descending New York Center
Sun 08:05:53 AM 40.0817 -75.2200 155° Southeast 285 328 6,100 -48 Descending New York Center
Sun 08:06:57 AM 40.0000 -75.1833 161° South 266 306 6,100 -48 Level Philadelphia TRACON
Sun 08:07:57 AM 39.9833 -75.1000 105° East 203 234 6,000 -100 Descending Philadelphia TRACON
Sun 08:08:57 AM 40.0000 -75.0167 75° East 211 243 5,900 -474 Descending Philadelphia TRACON
Sun 08:09:51 AM 40.0167 -74.9667 66° East 207 238 5,100 -714 Descending Philadelphia TRACON
Sun 08:11:03 AM 40.0000 -74.8833 105° East 197 227 4,400 -476 Descending Philadelphia TRACON
Sun 08:11:57 AM 39.9667 -74.8833 180° South 191 220 4,100 -211 Descending Philadelphia TRACON
Sun 08:12:57 AM 39.9333 -74.9333 229° Southwest 159 183 4,000 -48 Descending Philadelphia TRACON
Sun 08:14:03 AM 39.9167 -74.9833 247° West 161 185 4,000 -524 Level Philadelphia TRACON
Sun 08:15:03 AM 39.9167 -75.0500 270° West 158 182 2,900 -1,100 Descending Philadelphia TRACON

Login

Don't have an account? Register now (free) for customized features, flight alerts, and more!